KMGY/MGY METAR and TAF weather

Enter ICAO airport designator
Station Type Date Time Source
KMGY METAR 2022/01/19 20:53 UTC NOAA

KMGY 192053Z AUTO 30008KT 10SM BKN100 OVC120 08/M01 A2995 RMK AO2 SLP148 T00831006 53003


Station Type Date Time Source
KMGY Decoded METAR 2022/01/19 20:53 UTC NOAA

DAYTON WRIGHT BROTHERS AIRPORT , OH, United States (KMGY) 39-36N 84-14W 289M
Jan 19, 2022 - 03:53 PM EST / 2022.01.19 2053 UTC
Wind: from the WNW (300 degrees) at 9 MPH (8 KT):0
Visibility: 10 mile(s):0
Sky conditions: overcast
Temperature: 46.9 F (8.3 C)
Dew Point: 30.9 F (-0.6 C)
Relative Humidity: 53%
Pressure (altimeter): 29.95 in. Hg (1014 hPa)
Pressure tendency: 0.01 inches (0.3 hPa) higher than three hours ago
ob: KMGY 192053Z AUTO 30008KT 10SM BKN100 OVC120 08/M01 A2995 RMK AO2 SLP148 T00831006 53003
cycle: 21

Station Type Date Time Source
KMGY TAF UTC NOAA

Error!

Example: see airport list